sensor_id;sensor_type;location;lat;lon;timestamp;pressure;altitude;pressure_sealevel;temperature;humidity
75585;BME280;64162;53.508;10.476;2022-11-15T00:01:00;100726.78;;;5.42;84.86
75585;BME280;64162;53.508;10.476;2022-11-15T00:03:45;100711.13;;;5.42;84.60
75585;BME280;64162;53.508;10.476;2022-11-15T00:06:31;100712.97;;;5.40;84.79
75585;BME280;64162;53.508;10.476;2022-11-15T00:09:16;100718.28;;;5.38;84.62
75585;BME280;64162;53.508;10.476;2022-11-15T00:12:00;100714.09;;;5.36;84.72
75585;BME280;64162;53.508;10.476;2022-11-15T00:14:45;100709.56;;;5.23;85.23
75585;BME280;64162;53.508;10.476;2022-11-15T00:17:30;100705.66;;;5.30;85.02
75585;BME280;64162;53.508;10.476;2022-11-15T00:20:17;100705.94;;;5.26;84.80
75585;BME280;64162;53.508;10.476;2022-11-15T00:23:05;100709.28;;;5.28;84.60
75585;BME280;64162;53.508;10.476;2022-11-15T00:25:57;100701.81;;;5.22;84.92
75585;BME280;64162;53.508;10.476;2022-11-15T00:28:43;100706.41;;;5.18;84.83
75585;BME280;64162;53.508;10.476;2022-11-15T00:31:28;100709.00;;;5.18;84.79
75585;BME280;64162;53.508;10.476;2022-11-15T00:34:13;100705.81;;;5.13;84.98
75585;BME280;64162;53.508;10.476;2022-11-15T00:36:58;100711.22;;;5.10;84.66
75585;BME280;64162;53.508;10.476;2022-11-15T00:39:43;100704.66;;;5.03;85.07
75585;BME280;64162;53.508;10.476;2022-11-15T00:42:28;100710.53;;;5.07;84.86
75585;BME280;64162;53.508;10.476;2022-11-15T00:45:13;100707.34;;;5.02;85.38
75585;BME280;64162;53.508;10.476;2022-11-15T00:47:57;100703.38;;;5.10;85.60
75585;BME280;64162;53.508;10.476;2022-11-15T00:50:42;100711.13;;;5.12;85.47
75585;BME280;64162;53.508;10.476;2022-11-15T00:53:28;100712.81;;;5.13;85.09
75585;BME280;64162;53.508;10.476;2022-11-15T00:56:13;100711.22;;;5.10;84.80
75585;BME280;64162;53.508;10.476;2022-11-15T00:58:58;100713.91;;;5.09;84.71
75585;BME280;64162;53.508;10.476;2022-11-15T01:01:43;100709.78;;;5.05;85.07
75585;BME280;64162;53.508;10.476;2022-11-15T01:04:28;100702.22;;;5.00;84.27
75585;BME280;64162;53.508;10.476;2022-11-15T01:07:13;100708.19;;;5.02;84.85
75585;BME280;64162;53.508;10.476;2022-11-15T01:09:58;100704.81;;;5.00;84.19
75585;BME280;64162;53.508;10.476;2022-11-15T01:12:43;100696.31;;;4.96;84.39
75585;BME280;64162;53.508;10.476;2022-11-15T01:15:28;100699.94;;;4.94;84.31
75585;BME280;64162;53.508;10.476;2022-11-15T01:18:13;100692.63;;;4.85;84.63
75585;BME280;64162;53.508;10.476;2022-11-15T01:20:58;100691.53;;;4.89;84.45
75585;BME280;64162;53.508;10.476;2022-11-15T01:23:43;100693.53;;;4.84;84.41
75585;BME280;64162;53.508;10.476;2022-11-15T01:26:29;100682.44;;;4.80;84.25
75585;BME280;64162;53.508;10.476;2022-11-15T01:29:14;100691.34;;;4.76;84.25
75585;BME280;64162;53.508;10.476;2022-11-15T01:31:59;100695.06;;;4.72;84.58
75585;BME280;64162;53.508;10.476;2022-11-15T01:34:44;100693.47;;;4.70;84.30
75585;BME280;64162;53.508;10.476;2022-11-15T01:37:28;100677.88;;;4.68;84.42
75585;BME280;64162;53.508;10.476;2022-11-15T01:40:14;100674.88;;;4.60;84.60
75585;BME280;64162;53.508;10.476;2022-11-15T01:43:19;100668.06;;;4.57;84.60
75585;BME280;64162;53.508;10.476;2022-11-15T01:46:14;100666.47;;;4.55;84.48
75585;BME280;64162;53.508;10.476;2022-11-15T01:49:17;100670.16;;;4.51;84.50
75585;BME280;64162;53.508;10.476;2022-11-15T01:52:05;100666.88;;;4.47;84.88
75585;BME280;64162;53.508;10.476;2022-11-15T01:55:11;100662.00;;;4.41;84.62
75585;BME280;64162;53.508;10.476;2022-11-15T01:58:02;100657.03;;;4.37;84.53
75585;BME280;64162;53.508;10.476;2022-11-15T02:00:49;100653.91;;;4.30;84.39
75585;BME280;64162;53.508;10.476;2022-11-15T02:03:49;100661.13;;;4.25;84.47
75585;BME280;64162;53.508;10.476;2022-11-15T02:06:37;100660.53;;;4.20;84.48
75585;BME280;64162;53.508;10.476;2022-11-15T02:09:23;100659.69;;;4.19;84.49
75585;BME280;64162;53.508;10.476;2022-11-15T02:12:09;100650.53;;;4.12;84.27
75585;BME280;64162;53.508;10.476;2022-11-15T02:14:56;100650.69;;;4.09;84.66
75585;BME280;64162;53.508;10.476;2022-11-15T02:20:43;100649.44;;;4.01;84.47
75585;BME280;64162;53.508;10.476;2022-11-15T02:33:05;100641.41;;;3.88;84.85
75585;BME280;64162;53.508;10.476;2022-11-15T02:36:06;100635.53;;;3.84;84.75
75585;BME280;64162;53.508;10.476;2022-11-15T02:39:20;100640.06;;;3.81;84.95
75585;BME280;64162;53.508;10.476;2022-11-15T02:42:11;100639.44;;;3.76;84.70
75585;BME280;64162;53.508;10.476;2022-11-15T02:45:22;100632.63;;;3.73;84.63
75585;BME280;64162;53.508;10.476;2022-11-15T02:48:08;100638.75;;;3.72;85.05
75585;BME280;64162;53.508;10.476;2022-11-15T02:50:55;100635.41;;;3.70;84.84
75585;BME280;64162;53.508;10.476;2022-11-15T02:53:40;100637.94;;;3.72;85.15
75585;BME280;64162;53.508;10.476;2022-11-15T02:56:25;100632.78;;;3.70;85.30
75585;BME280;64162;53.508;10.476;2022-11-15T02:59:59;100639.69;;;3.71;85.31
75585;BME280;64162;53.508;10.476;2022-11-15T03:06:00;100646.66;;;3.71;85.13
75585;BME280;64162;53.508;10.476;2022-11-15T03:11:38;100638.00;;;3.70;85.28
75585;BME280;64162;53.508;10.476;2022-11-15T03:14:31;100630.25;;;3.69;85.36
75585;BME280;64162;53.508;10.476;2022-11-15T03:17:27;100634.56;;;3.70;85.28
75585;BME280;64162;53.508;10.476;2022-11-15T03:20:16;100633.78;;;3.68;85.16
75585;BME280;64162;53.508;10.476;2022-11-15T03:23:10;100630.25;;;3.69;85.13
75585;BME280;64162;53.508;10.476;2022-11-15T03:25:56;100644.06;;;3.71;85.38
75585;BME280;64162;53.508;10.476;2022-11-15T03:28:53;100642.06;;;3.76;85.35
75585;BME280;64162;53.508;10.476;2022-11-15T03:31:44;100637.16;;;3.70;85.16
75585;BME280;64162;53.508;10.476;2022-11-15T03:40:56;100630.94;;;3.72;84.91
75585;BME280;64162;53.508;10.476;2022-11-15T03:46:40;100627.50;;;3.72;85.09
75585;BME280;64162;53.508;10.476;2022-11-15T03:49:33;100622.06;;;3.76;84.94
75585;BME280;64162;53.508;10.476;2022-11-15T03:52:20;100619.22;;;3.81;85.40
75585;BME280;64162;53.508;10.476;2022-11-15T03:55:10;100627.94;;;3.80;85.47
75585;BME280;64162;53.508;10.476;2022-11-15T03:57:59;100618.28;;;3.82;85.65
75585;BME280;64162;53.508;10.476;2022-11-15T04:00:45;100609.63;;;3.81;85.33
75585;BME280;64162;53.508;10.476;2022-11-15T04:03:30;100613.75;;;3.85;85.12
75585;BME280;64162;53.508;10.476;2022-11-15T04:06:15;100605.84;;;3.87;85.53
75585;BME280;64162;53.508;10.476;2022-11-15T04:09:00;100612.75;;;3.88;84.91
75585;BME280;64162;53.508;10.476;2022-11-15T04:11:45;100608.31;;;3.90;85.18
75585;BME280;64162;53.508;10.476;2022-11-15T04:14:30;100607.38;;;3.91;85.24
75585;BME280;64162;53.508;10.476;2022-11-15T04:17:15;100611.00;;;3.88;85.10
75585;BME280;64162;53.508;10.476;2022-11-15T04:20:00;100623.25;;;3.86;84.94
75585;BME280;64162;53.508;10.476;2022-11-15T04:23:06;100629.38;;;3.85;85.03
75585;BME280;64162;53.508;10.476;2022-11-15T04:26:14;100626.63;;;3.88;84.62
75585;BME280;64162;53.508;10.476;2022-11-15T04:28:59;100622.41;;;3.86;84.96
75585;BME280;64162;53.508;10.476;2022-11-15T04:32:05;100614.69;;;3.84;85.21
75585;BME280;64162;53.508;10.476;2022-11-15T04:34:51;100618.81;;;3.88;85.59
75585;BME280;64162;53.508;10.476;2022-11-15T04:37:36;100608.91;;;3.95;85.50
75585;BME280;64162;53.508;10.476;2022-11-15T04:40:21;100614.88;;;3.97;85.13
75585;BME280;64162;53.508;10.476;2022-11-15T04:43:06;100616.41;;;4.01;85.28
75585;BME280;64162;53.508;10.476;2022-11-15T04:45:51;100622.38;;;4.03;85.51
75585;BME280;64162;53.508;10.476;2022-11-15T04:48:36;100621.75;;;4.14;85.91
75585;BME280;64162;53.508;10.476;2022-11-15T04:51:21;100630.09;;;4.20;85.25
75585;BME280;64162;53.508;10.476;2022-11-15T04:54:06;100621.94;;;4.26;86.00
75585;BME280;64162;53.508;10.476;2022-11-15T04:56:51;100634.66;;;4.32;85.96
75585;BME280;64162;53.508;10.476;2022-11-15T04:59:36;100629.78;;;4.42;85.82
75585;BME280;64162;53.508;10.476;2022-11-15T05:02:21;100633.72;;;4.49;86.21
75585;BME280;64162;53.508;10.476;2022-11-15T05:05:06;100637.22;;;4.64;85.94
75585;BME280;64162;53.508;10.476;2022-11-15T05:07:51;100631.34;;;4.76;85.69
75585;BME280;64162;53.508;10.476;2022-11-15T05:10:36;100625.50;;;4.87;85.70
75585;BME280;64162;53.508;10.476;2022-11-15T05:13:21;100623.22;;;4.96;85.80
75585;BME280;64162;53.508;10.476;2022-11-15T05:16:06;100624.56;;;5.04;85.58
75585;BME280;64162;53.508;10.476;2022-11-15T05:18:53;100625.03;;;5.10;85.17
75585;BME280;64162;53.508;10.476;2022-11-15T05:21:38;100617.69;;;5.17;84.83
75585;BME280;64162;53.508;10.476;2022-11-15T05:24:23;100618.31;;;5.20;84.83
75585;BME280;64162;53.508;10.476;2022-11-15T05:27:08;100624.13;;;5.25;85.08
75585;BME280;64162;53.508;10.476;2022-11-15T05:29:54;100616.94;;;5.29;85.09
75585;BME280;64162;53.508;10.476;2022-11-15T05:32:40;100608.94;;;5.32;84.73
75585;BME280;64162;53.508;10.476;2022-11-15T05:35:31;100615.75;;;5.35;84.83
75585;BME280;64162;53.508;10.476;2022-11-15T05:38:19;100617.59;;;5.32;84.63
75585;BME280;64162;53.508;10.476;2022-11-15T05:41:04;100618.19;;;5.38;83.82
75585;BME280;64162;53.508;10.476;2022-11-15T05:43:51;100614.06;;;5.34;83.48
75585;BME280;64162;53.508;10.476;2022-11-15T05:46:36;100607.69;;;5.23;83.08
75585;BME280;64162;53.508;10.476;2022-11-15T05:49:28;100606.00;;;5.08;83.42
75585;BME280;64162;53.508;10.476;2022-11-15T05:52:17;100608.72;;;5.07;83.34
75585;BME280;64162;53.508;10.476;2022-11-15T05:55:05;100610.25;;;4.95;83.62
75585;BME280;64162;53.508;10.476;2022-11-15T05:57:52;100611.53;;;4.88;83.55
75585;BME280;64162;53.508;10.476;2022-11-15T06:00:37;100609.09;;;4.85;83.58
75585;BME280;64162;53.508;10.476;2022-11-15T06:03:23;100615.09;;;4.71;84.01
75585;BME280;64162;53.508;10.476;2022-11-15T06:06:08;100617.88;;;4.68;84.04
75585;BME280;64162;53.508;10.476;2022-11-15T06:08:56;100617.94;;;4.67;84.20
75585;BME280;64162;53.508;10.476;2022-11-15T06:11:40;100611.81;;;4.68;84.19
75585;BME280;64162;53.508;10.476;2022-11-15T06:14:25;100619.34;;;4.58;85.03
75585;BME280;64162;53.508;10.476;2022-11-15T06:17:10;100627.94;;;4.60;84.58
75585;BME280;64162;53.508;10.476;2022-11-15T06:19:56;100628.75;;;4.60;84.56
75585;BME280;64162;53.508;10.476;2022-11-15T06:22:41;100633.91;;;4.62;84.13
75585;BME280;64162;53.508;10.476;2022-11-15T06:25:27;100633.13;;;4.60;84.41
75585;BME280;64162;53.508;10.476;2022-11-15T06:28:12;100640.13;;;4.59;84.30
75585;BME280;64162;53.508;10.476;2022-11-15T06:31:08;100644.41;;;4.60;84.49
75585;BME280;64162;53.508;10.476;2022-11-15T06:33:53;100654.84;;;4.60;84.34
75585;BME280;64162;53.508;10.476;2022-11-15T06:36:38;100655.94;;;4.56;84.93
75585;BME280;64162;53.508;10.476;2022-11-15T06:39:23;100652.63;;;4.69;85.13
75585;BME280;64162;53.508;10.476;2022-11-15T06:42:08;100641.78;;;4.76;85.54
75585;BME280;64162;53.508;10.476;2022-11-15T06:44:53;100638.31;;;4.91;85.56
75585;BME280;64162;53.508;10.476;2022-11-15T06:47:47;100641.16;;;5.03;85.45
75585;BME280;64162;53.508;10.476;2022-11-15T06:50:33;100631.00;;;5.12;85.48
75585;BME280;64162;53.508;10.476;2022-11-15T06:53:18;100640.63;;;5.26;85.09
75585;BME280;64162;53.508;10.476;2022-11-15T06:56:04;100647.00;;;5.36;84.75
75585;BME280;64162;53.508;10.476;2022-11-15T06:58:50;100651.44;;;5.50;84.95
75585;BME280;64162;53.508;10.476;2022-11-15T07:01:35;100656.88;;;5.61;84.51
75585;BME280;64162;53.508;10.476;2022-11-15T07:04:20;100645.09;;;5.68;84.53
75585;BME280;64162;53.508;10.476;2022-11-15T07:07:05;100655.94;;;5.76;84.09
75585;BME280;64162;53.508;10.476;2022-11-15T07:09:50;100653.69;;;5.84;84.18
75585;BME280;64162;53.508;10.476;2022-11-15T07:12:35;100654.00;;;5.94;83.81
75585;BME280;64162;53.508;10.476;2022-11-15T07:15:22;100653.72;;;5.99;84.09
75585;BME280;64162;53.508;10.476;2022-11-15T07:18:07;100656.81;;;6.05;83.47
75585;BME280;64162;53.508;10.476;2022-11-15T07:20:53;100660.72;;;6.12;83.68
75585;BME280;64162;53.508;10.476;2022-11-15T07:23:39;100657.84;;;6.17;83.00
75585;BME280;64162;53.508;10.476;2022-11-15T07:26:24;100654.75;;;6.24;82.93
75585;BME280;64162;53.508;10.476;2022-11-15T07:29:09;100656.16;;;6.30;83.02
75585;BME280;64162;53.508;10.476;2022-11-15T07:31:54;100657.41;;;6.37;82.85
75585;BME280;64162;53.508;10.476;2022-11-15T07:34:39;100654.41;;;6.43;82.90
75585;BME280;64162;53.508;10.476;2022-11-15T07:37:24;100665.53;;;6.47;82.75
75585;BME280;64162;53.508;10.476;2022-11-15T07:40:09;100670.94;;;6.58;82.56
75585;BME280;64162;53.508;10.476;2022-11-15T07:43:03;100673.91;;;6.66;82.76
75585;BME280;64162;53.508;10.476;2022-11-15T07:45:48;100672.38;;;6.76;82.70
75585;BME280;64162;53.508;10.476;2022-11-15T07:48:36;100678.81;;;6.85;82.12
75585;BME280;64162;53.508;10.476;2022-11-15T07:51:27;100677.50;;;6.92;82.24
75585;BME280;64162;53.508;10.476;2022-11-15T07:54:12;100674.53;;;6.96;82.07
75585;BME280;64162;53.508;10.476;2022-11-15T07:56:57;100677.75;;;7.14;81.87
75585;BME280;64162;53.508;10.476;2022-11-15T07:59:45;100676.50;;;7.20;81.80
75585;BME280;64162;53.508;10.476;2022-11-15T08:02:30;100667.84;;;7.32;81.59
75585;BME280;64162;53.508;10.476;2022-11-15T08:05:16;100678.13;;;7.35;81.41
75585;BME280;64162;53.508;10.476;2022-11-15T08:08:01;100683.06;;;7.40;80.82
75585;BME280;64162;53.508;10.476;2022-11-15T08:10:46;100671.13;;;7.48;81.38
75585;BME280;64162;53.508;10.476;2022-11-15T08:13:31;100667.13;;;7.55;80.60
75585;BME280;64162;53.508;10.476;2022-11-15T08:16:16;100670.06;;;7.63;80.82
75585;BME280;64162;53.508;10.476;2022-11-15T08:19:01;100663.78;;;7.66;80.74
75585;BME280;64162;53.508;10.476;2022-11-15T08:21:46;100665.56;;;7.66;80.05
75585;BME280;64162;53.508;10.476;2022-11-15T08:24:31;100672.81;;;7.62;80.39
75585;BME280;64162;53.508;10.476;2022-11-15T08:27:16;100670.19;;;7.75;80.66
75585;BME280;64162;53.508;10.476;2022-11-15T08:30:01;100665.88;;;7.74;80.41
75585;BME280;64162;53.508;10.476;2022-11-15T08:32:47;100664.13;;;7.87;80.20
75585;BME280;64162;53.508;10.476;2022-11-15T08:35:32;100671.34;;;7.96;80.31
75585;BME280;64162;53.508;10.476;2022-11-15T08:38:17;100668.41;;;8.01;80.10
75585;BME280;64162;53.508;10.476;2022-11-15T08:41:04;100676.72;;;8.07;79.29
75585;BME280;64162;53.508;10.476;2022-11-15T08:43:53;100668.38;;;8.13;79.63
75585;BME280;64162;53.508;10.476;2022-11-15T08:46:38;100666.06;;;8.21;79.79
75585;BME280;64162;53.508;10.476;2022-11-15T08:49:23;100663.00;;;8.27;79.58
75585;BME280;64162;53.508;10.476;2022-11-15T08:52:08;100668.47;;;8.24;79.70
75585;BME280;64162;53.508;10.476;2022-11-15T08:54:53;100668.47;;;8.24;79.33
75585;BME280;64162;53.508;10.476;2022-11-15T08:57:38;100668.16;;;8.29;79.40
75585;BME280;64162;53.508;10.476;2022-11-15T09:00:24;100669.94;;;8.28;79.94
75585;BME280;64162;53.508;10.476;2022-11-15T09:03:09;100655.69;;;8.33;79.25
75585;BME280;64162;53.508;10.476;2022-11-15T09:05:59;100657.66;;;8.42;79.29
75585;BME280;64162;53.508;10.476;2022-11-15T09:08:44;100656.69;;;8.55;78.72
75585;BME280;64162;53.508;10.476;2022-11-15T09:11:31;100661.97;;;8.67;78.65
75585;BME280;64162;53.508;10.476;2022-11-15T09:14:16;100665.56;;;8.89;78.13
75585;BME280;64162;53.508;10.476;2022-11-15T09:17:01;100660.50;;;8.99;77.91
75585;BME280;64162;53.508;10.476;2022-11-15T09:19:46;100657.41;;;9.05;77.89
75585;BME280;64162;53.508;10.476;2022-11-15T09:22:31;100660.03;;;9.05;77.33
75585;BME280;64162;53.508;10.476;2022-11-15T09:25:17;100653.31;;;9.01;77.42
75585;BME280;64162;53.508;10.476;2022-11-15T09:28:05;100656.97;;;9.11;76.98
75585;BME280;64162;53.508;10.476;2022-11-15T09:30:50;100657.13;;;9.21;76.86
75585;BME280;64162;53.508;10.476;2022-11-15T09:33:36;100662.16;;;9.24;77.20
75585;BME280;64162;53.508;10.476;2022-11-15T09:36:21;100657.63;;;9.37;77.35
75585;BME280;64162;53.508;10.476;2022-11-15T09:39:07;100674.78;;;9.54;76.91
75585;BME280;64162;53.508;10.476;2022-11-15T09:50:54;100674.75;;;10.34;75.88
75585;BME280;64162;53.508;10.476;2022-11-15T09:53:34;100677.00;;;10.49;75.45
75585;BME280;64162;53.508;10.476;2022-11-15T09:56:28;100675.78;;;10.65;74.97
75585;BME280;64162;53.508;10.476;2022-11-15T10:02:20;100664.94;;;10.90;74.87
75585;BME280;64162;53.508;10.476;2022-11-15T10:04:51;100666.78;;;11.10;74.65
75585;BME280;64162;53.508;10.476;2022-11-15T10:10:08;100665.53;;;11.46;73.00
75585;BME280;64162;53.508;10.476;2022-11-15T10:12:38;100646.06;;;11.68;72.79
75585;BME280;64162;53.508;10.476;2022-11-15T10:15:12;100656.13;;;11.74;72.45
75585;BME280;64162;53.508;10.476;2022-11-15T10:20:47;100651.88;;;11.83;72.08
75585;BME280;64162;53.508;10.476;2022-11-15T10:23:17;100645.06;;;11.80;71.66
75585;BME280;64162;53.508;10.476;2022-11-15T10:25:44;100640.22;;;11.85;72.50
75585;BME280;64162;53.508;10.476;2022-11-15T10:28:40;100646.28;;;11.97;72.13
75585;BME280;64162;53.508;10.476;2022-11-15T10:31:22;100631.59;;;12.14;71.55
75585;BME280;64162;53.508;10.476;2022-11-15T10:33:49;100638.31;;;12.28;70.79
75585;BME280;64162;53.508;10.476;2022-11-15T10:36:19;100642.22;;;12.33;70.83
75585;BME280;64162;53.508;10.476;2022-11-15T10:41:17;100634.31;;;12.43;70.37
75585;BME280;64162;53.508;10.476;2022-11-15T10:43:46;100631.56;;;12.54;69.28
75585;BME280;64162;53.508;10.476;2022-11-15T10:46:26;100632.53;;;12.53;69.21
75585;BME280;64162;53.508;10.476;2022-11-15T10:49:27;100623.25;;;12.59;69.12
75585;BME280;64162;53.508;10.476;2022-11-15T10:52:14;100629.06;;;12.72;69.69
75585;BME280;64162;53.508;10.476;2022-11-15T10:57:39;100614.34;;;12.69;69.11
75585;BME280;64162;53.508;10.476;2022-11-15T11:03:01;100607.34;;;12.49;68.47
75585;BME280;64162;53.508;10.476;2022-11-15T11:05:32;100598.72;;;12.47;69.19
75585;BME280;64162;53.508;10.476;2022-11-15T11:10:55;100608.09;;;12.61;68.33
75585;BME280;64162;53.508;10.476;2022-11-15T11:13:29;100606.28;;;12.71;68.28
75585;BME280;64162;53.508;10.476;2022-11-15T11:19:04;100589.84;;;12.77;67.41
75585;BME280;64162;53.508;10.476;2022-11-15T11:24:49;100593.06;;;12.71;67.25
75585;BME280;64162;53.508;10.476;2022-11-15T11:27:42;100581.50;;;12.62;67.74
75585;BME280;64162;53.508;10.476;2022-11-15T11:32:48;100580.13;;;12.68;68.33
75585;BME280;64162;53.508;10.476;2022-11-15T11:38:42;100579.69;;;12.72;68.68
75585;BME280;64162;53.508;10.476;2022-11-15T11:44:07;100569.81;;;12.65;67.98
75585;BME280;64162;53.508;10.476;2022-11-15T11:46:45;100564.50;;;12.74;67.76
75585;BME280;64162;53.508;10.476;2022-11-15T11:51:54;100562.56;;;12.86;67.87
75585;BME280;64162;53.508;10.476;2022-11-15T11:57:03;100557.69;;;13.01;67.25
75585;BME280;64162;53.508;10.476;2022-11-15T11:59:43;100558.94;;;13.06;67.51
75585;BME280;64162;53.508;10.476;2022-11-15T12:02:19;100546.00;;;13.13;66.13
75585;BME280;64162;53.508;10.476;2022-11-15T12:04:50;100541.69;;;13.21;66.67
75585;BME280;64162;53.508;10.476;2022-11-15T12:07:24;100540.44;;;13.26;65.62
75585;BME280;64162;53.508;10.476;2022-11-15T12:10:18;100533.91;;;13.20;65.91
75585;BME280;64162;53.508;10.476;2022-11-15T12:12:56;100524.28;;;13.19;65.75
75585;BME280;64162;53.508;10.476;2022-11-15T12:15:31;100521.66;;;13.19;65.69
75585;BME280;64162;53.508;10.476;2022-11-15T12:18:00;100526.78;;;13.11;66.40
75585;BME280;64162;53.508;10.476;2022-11-15T12:20:30;100533.34;;;13.07;66.68
75585;BME280;64162;53.508;10.476;2022-11-15T12:23:03;100534.59;;;13.03;67.86
75585;BME280;64162;53.508;10.476;2022-11-15T12:25:54;100530.81;;;13.05;67.53
75585;BME280;64162;53.508;10.476;2022-11-15T12:28:40;100537.78;;;13.06;67.13
75585;BME280;64162;53.508;10.476;2022-11-15T12:31:37;100525.28;;;13.18;67.10
75585;BME280;64162;53.508;10.476;2022-11-15T12:34:37;100520.13;;;13.16;66.60
75585;BME280;64162;53.508;10.476;2022-11-15T12:37:01;100513.66;;;13.29;66.47
75585;BME280;64162;53.508;10.476;2022-11-15T12:42:42;100507.66;;;13.36;67.00
75585;BME280;64162;53.508;10.476;2022-11-15T12:50:55;100512.19;;;13.53;66.52
75585;BME280;64162;53.508;10.476;2022-11-15T13:06:45;100510.06;;;13.67;65.81
75585;BME280;64162;53.508;10.476;2022-11-15T13:12:10;100511.47;;;13.61;66.10
75585;BME280;64162;53.508;10.476;2022-11-15T13:22:41;100494.25;;;13.47;66.28
75585;BME280;64162;53.508;10.476;2022-11-15T13:30:36;100486.00;;;13.23;67.19
75585;BME280;64162;53.508;10.476;2022-11-15T13:33:24;100474.16;;;13.17;67.07
75585;BME280;64162;53.508;10.476;2022-11-15T13:35:55;100469.28;;;13.13;67.33
75585;BME280;64162;53.508;10.476;2022-11-15T13:38:36;100461.50;;;13.02;67.69
75585;BME280;64162;53.508;10.476;2022-11-15T13:41:21;100451.22;;;12.89;68.17
75585;BME280;64162;53.508;10.476;2022-11-15T13:43:49;100457.09;;;12.83;68.46
75585;BME280;64162;53.508;10.476;2022-11-15T13:46:23;100446.25;;;12.76;68.60
75585;BME280;64162;53.508;10.476;2022-11-15T13:49:08;100438.91;;;12.70;68.77
75585;BME280;64162;53.508;10.476;2022-11-15T13:51:48;100430.31;;;12.59;69.22
75585;BME280;64162;53.508;10.476;2022-11-15T13:54:20;100437.53;;;12.47;69.65
75585;BME280;64162;53.508;10.476;2022-11-15T13:56:54;100434.19;;;12.45;69.68
75585;BME280;64162;53.508;10.476;2022-11-15T13:59:30;100421.00;;;12.26;70.30
75585;BME280;64162;53.508;10.476;2022-11-15T14:02:09;100435.72;;;12.28;70.44
75585;BME280;64162;53.508;10.476;2022-11-15T14:04:45;100435.59;;;12.30;70.38
75585;BME280;64162;53.508;10.476;2022-11-15T14:07:18;100446.16;;;12.30;70.39
75585;BME280;64162;53.508;10.476;2022-11-15T14:09:46;100448.94;;;12.28;70.33
75585;BME280;64162;53.508;10.476;2022-11-15T14:12:34;100440.59;;;12.13;70.97
75585;BME280;64162;53.508;10.476;2022-11-15T14:17:57;100449.22;;;12.15;71.03
75585;BME280;64162;53.508;10.476;2022-11-15T14:20:38;100450.47;;;12.11;71.49
75585;BME280;64162;53.508;10.476;2022-11-15T14:23:19;100442.69;;;12.00;71.70
75585;BME280;64162;53.508;10.476;2022-11-15T14:25:57;100447.69;;;11.94;71.90
75585;BME280;64162;53.508;10.476;2022-11-15T14:30:52;100448.44;;;11.75;73.06
75585;BME280;64162;53.508;10.476;2022-11-15T14:33:23;100448.19;;;11.78;72.59
75585;BME280;64162;53.508;10.476;2022-11-15T14:35:52;100446.91;;;11.72;72.90
75585;BME280;64162;53.508;10.476;2022-11-15T14:38:19;100442.28;;;11.65;73.12
75585;BME280;64162;53.508;10.476;2022-11-15T14:40:45;100441.72;;;11.61;73.46
75585;BME280;64162;53.508;10.476;2022-11-15T14:43:12;100437.81;;;11.55;73.64
75585;BME280;64162;53.508;10.476;2022-11-15T14:45:39;100424.34;;;11.49;73.84
75585;BME280;64162;53.508;10.476;2022-11-15T14:48:05;100430.03;;;11.44;74.06
75585;BME280;64162;53.508;10.476;2022-11-15T14:50:33;100434.84;;;11.30;74.68
75585;BME280;64162;53.508;10.476;2022-11-15T14:53:01;100424.00;;;11.33;74.42
75585;BME280;64162;53.508;10.476;2022-11-15T14:55:33;100424.63;;;11.15;75.54
75585;BME280;64162;53.508;10.476;2022-11-15T14:58:03;100415.44;;;11.10;75.81
75585;BME280;64162;53.508;10.476;2022-11-15T15:00:31;100418.59;;;11.04;76.00
75585;BME280;64162;53.508;10.476;2022-11-15T15:03:01;100422.34;;;11.01;75.81
75585;BME280;64162;53.508;10.476;2022-11-15T15:05:42;100423.44;;;10.99;75.63
75585;BME280;64162;53.508;10.476;2022-11-15T15:08:09;100422.72;;;10.87;76.37
75585;BME280;64162;53.508;10.476;2022-11-15T15:10:38;100418.94;;;10.80;76.43
75585;BME280;64162;53.508;10.476;2022-11-15T15:13:14;100414.44;;;10.71;77.05
75585;BME280;64162;53.508;10.476;2022-11-15T15:15:42;100420.34;;;10.63;77.32
75585;BME280;64162;53.508;10.476;2022-11-15T15:18:08;100425.88;;;10.60;77.59
75585;BME280;64162;53.508;10.476;2022-11-15T15:20:37;100413.84;;;10.46;78.07
75585;BME280;64162;53.508;10.476;2022-11-15T15:23:04;100418.41;;;10.44;78.33
75585;BME280;64162;53.508;10.476;2022-11-15T15:25:34;100414.75;;;10.36;78.38
75585;BME280;64162;53.508;10.476;2022-11-15T15:28:01;100422.22;;;10.31;78.35
75585;BME280;64162;53.508;10.476;2022-11-15T15:30:29;100413.00;;;10.25;78.82
75585;BME280;64162;53.508;10.476;2022-11-15T15:32:56;100415.19;;;10.20;79.13
75585;BME280;64162;53.508;10.476;2022-11-15T15:35:23;100408.59;;;10.14;79.27
75585;BME280;64162;53.508;10.476;2022-11-15T15:37:52;100409.69;;;10.12;79.63
75585;BME280;64162;53.508;10.476;2022-11-15T15:40:21;100404.41;;;10.12;80.17
75585;BME280;64162;53.508;10.476;2022-11-15T15:42:48;100399.28;;;10.10;80.08
75585;BME280;64162;53.508;10.476;2022-11-15T15:45:16;100407.63;;;10.15;80.19
75585;BME280;64162;53.508;10.476;2022-11-15T15:47:44;100405.00;;;10.15;80.41
75585;BME280;64162;53.508;10.476;2022-11-15T15:50:21;100409.66;;;10.23;80.25
75585;BME280;64162;53.508;10.476;2022-11-15T15:52:49;100402.47;;;10.25;80.52
75585;BME280;64162;53.508;10.476;2022-11-15T15:55:16;100405.66;;;10.40;79.75
75585;BME280;64162;53.508;10.476;2022-11-15T15:57:42;100407.16;;;10.42;79.85
75585;BME280;64162;53.508;10.476;2022-11-15T16:00:10;100409.72;;;10.53;79.61
75585;BME280;64162;53.508;10.476;2022-11-15T16:02:39;100409.34;;;10.58;79.27
75585;BME280;64162;53.508;10.476;2022-11-15T16:05:07;100404.41;;;10.65;78.89